Hay Miller Street, Australia
Current Conditions -  °F | °C
As of 5:00 PM on Friday 31 Oct 2014 (Local Time) from YGTH Reporting Station
Clear Clear  
Wind Chill: 93°   Ceiling: Unl
Heat Index: 93°   Visibility: 6mi
Dew Point: 23°   Wind: 16mph
Humidity: 8%   Direction: 330°NNW
Pressure: 29.65"   Gusts: NA
Location:  34.52°S, 144.86°E
Report Text: YGTH 310600Z AUTO 33014KT 9999 // NCD 34/M05 Q1004
Loading
Personal Weather Stations






























Interactive Weather Map
Tropical Storm Tracking
New forecast layout! Learn more

10-Day Weather Forecast

Advertisements
Track Severe Weather on mobile